createdAt,value
2022-11-30T00:01:20.559Z,5.97
2022-11-30T00:03:48.337Z,5.92
2022-11-30T00:06:16.900Z,5.88
2022-11-30T00:08:43.586Z,5.88
2022-11-30T00:11:15.282Z,5.88
2022-11-30T00:13:42.537Z,5.89
2022-11-30T00:16:10.164Z,5.84
2022-11-30T00:18:37.505Z,5.85
2022-11-30T00:21:08.630Z,5.85
2022-11-30T00:23:37.885Z,5.89
2022-11-30T00:26:07.151Z,5.88
2022-11-30T00:28:34.821Z,5.88
2022-11-30T00:31:04.175Z,5.87
2022-11-30T00:33:34.635Z,5.89
2022-11-30T00:36:04.273Z,5.89
2022-11-30T00:38:32.772Z,5.87
2022-11-30T00:41:00.708Z,5.90
2022-11-30T00:43:27.578Z,5.89
2022-11-30T00:45:54.773Z,5.85
2022-11-30T00:48:21.521Z,5.91
2022-11-30T00:50:49.851Z,5.91
2022-11-30T00:53:17.299Z,5.90
2022-11-30T00:55:45.177Z,5.91
2022-11-30T00:58:12.669Z,5.90
2022-11-30T01:00:40.365Z,5.90
2022-11-30T01:03:07.378Z,5.93
2022-11-30T01:05:34.662Z,5.95
2022-11-30T01:08:02.538Z,5.98
2022-11-30T01:10:29.254Z,5.96
2022-11-30T01:12:56.160Z,6.00
2022-11-30T01:15:23.348Z,5.95
2022-11-30T01:17:50.027Z,5.93
2022-11-30T01:20:16.717Z,5.91
2022-11-30T01:22:43.473Z,5.82
2022-11-30T01:25:10.194Z,5.84
2022-11-30T01:27:36.829Z,5.86
2022-11-30T01:30:05.321Z,5.85
2022-11-30T01:32:32.075Z,5.88
2022-11-30T01:34:58.722Z,5.85
2022-11-30T01:37:25.283Z,5.89
2022-11-30T01:39:51.881Z,5.82
2022-11-30T01:42:20.818Z,5.82
2022-11-30T01:44:57.377Z,5.84
2022-11-30T01:47:29.565Z,5.88
2022-11-30T01:50:13.524Z,5.94
2022-11-30T01:52:43.541Z,5.92
2022-11-30T01:55:24.647Z,5.89
2022-11-30T01:58:00.467Z,5.90
2022-11-30T02:00:27.279Z,5.93
2022-11-30T02:03:12.892Z,5.90
2022-11-30T02:05:41.366Z,5.86
2022-11-30T02:08:10.781Z,5.81
2022-11-30T02:10:45.131Z,5.81
2022-11-30T02:13:33.600Z,5.83
2022-11-30T02:16:03.029Z,5.84
2022-11-30T02:18:59.258Z,5.83
2022-11-30T02:21:40.892Z,5.81
2022-11-30T02:24:10.597Z,5.76
2022-11-30T02:26:54.664Z,5.77
2022-11-30T02:29:31.832Z,5.74
2022-11-30T02:32:11.926Z,5.75
2022-11-30T02:34:41.486Z,5.73
2022-11-30T02:37:10.790Z,5.76
2022-11-30T02:39:37.379Z,5.78
2022-11-30T02:42:04.050Z,5.76
2022-11-30T02:44:30.809Z,5.72
2022-11-30T02:47:23.629Z,5.77
2022-11-30T02:49:56.579Z,5.78
2022-11-30T02:52:27.097Z,5.80
2022-11-30T02:55:06.369Z,5.77
2022-11-30T02:57:34.013Z,5.80
2022-11-30T03:00:03.482Z,5.78
2022-11-30T03:02:30.156Z,5.82
2022-11-30T03:04:56.829Z,5.83
2022-11-30T03:07:23.481Z,5.80
2022-11-30T03:09:50.392Z,5.82
2022-11-30T03:12:16.980Z,5.77
2022-11-30T03:14:43.749Z,5.75
2022-11-30T03:17:10.514Z,5.77
2022-11-30T03:19:37.083Z,5.75
2022-11-30T03:22:03.999Z,5.71
2022-11-30T03:24:30.582Z,5.72
2022-11-30T03:26:57.434Z,5.73
2022-11-30T03:29:24.154Z,5.74
2022-11-30T03:31:50.803Z,5.73
2022-11-30T03:34:17.429Z,5.71
2022-11-30T03:36:44.037Z,5.67
2022-11-30T03:39:10.643Z,5.72
2022-11-30T03:41:37.238Z,5.76
2022-11-30T03:44:03.819Z,5.76
2022-11-30T03:46:30.598Z,5.74
2022-11-30T03:48:57.245Z,5.77
2022-11-30T03:51:23.851Z,5.80
2022-11-30T03:53:50.497Z,5.79
2022-11-30T03:56:17.312Z,5.79
2022-11-30T03:58:43.950Z,5.78
2022-11-30T04:01:16.137Z,5.81
2022-11-30T04:03:43.587Z,5.76
2022-11-30T04:06:12.373Z,5.72
2022-11-30T04:08:40.125Z,5.71
2022-11-30T04:11:07.149Z,5.73
2022-11-30T04:13:35.774Z,5.73
2022-11-30T04:16:02.609Z,5.73
2022-11-30T04:18:30.521Z,5.74
2022-11-30T04:20:59.380Z,5.79
2022-11-30T04:23:30.002Z,5.80
2022-11-30T04:25:57.449Z,5.79
2022-11-30T04:28:24.176Z,5.77
2022-11-30T04:30:50.793Z,5.81
2022-11-30T04:33:17.353Z,5.82
2022-11-30T04:35:49.340Z,5.86
2022-11-30T04:38:16.006Z,5.83
2022-11-30T04:40:43.517Z,5.80
2022-11-30T04:43:11.664Z,5.74
2022-11-30T04:45:38.696Z,5.71
2022-11-30T04:48:06.180Z,5.73
2022-11-30T04:50:33.080Z,5.72
2022-11-30T04:52:59.839Z,5.71
2022-11-30T04:55:26.580Z,5.74
2022-11-30T04:57:53.505Z,5.73
2022-11-30T05:00:20.385Z,5.68
2022-11-30T05:02:52.435Z,5.69
2022-11-30T05:05:20.132Z,5.72
2022-11-30T05:07:54.546Z,5.72
2022-11-30T05:10:21.158Z,5.70
2022-11-30T05:12:47.838Z,5.73
2022-11-30T05:15:14.448Z,5.73
2022-11-30T05:17:41.044Z,5.71
2022-11-30T05:20:08.004Z,5.71
2022-11-30T05:22:37.524Z,5.68
2022-11-30T05:25:04.388Z,5.74
2022-11-30T05:27:30.979Z,5.72
2022-11-30T05:29:57.537Z,5.72
2022-11-30T05:32:24.202Z,5.72
2022-11-30T05:34:51.924Z,5.72
2022-11-30T05:37:19.694Z,5.68
2022-11-30T05:39:46.353Z,5.71
2022-11-30T05:42:12.999Z,5.74
2022-11-30T05:44:39.575Z,5.68
2022-11-30T05:47:06.277Z,5.65
2022-11-30T05:49:32.888Z,5.71
2022-11-30T05:51:59.498Z,5.65
2022-11-30T05:54:26.059Z,5.65
2022-11-30T05:56:55.000Z,5.65
2022-11-30T05:59:22.789Z,5.64
2022-11-30T06:01:52.370Z,5.64
2022-11-30T06:04:19.717Z,5.64
2022-11-30T06:06:46.365Z,5.61
2022-11-30T06:09:12.980Z,5.59
2022-11-30T06:11:39.558Z,5.58
2022-11-30T06:14:06.276Z,5.60
2022-11-30T06:16:33.121Z,5.59
2022-11-30T06:18:59.911Z,5.54
2022-11-30T06:21:26.490Z,5.52
2022-11-30T06:23:53.121Z,5.60
2022-11-30T06:26:19.796Z,5.61
2022-11-30T06:28:48.439Z,5.62
2022-11-30T06:31:16.162Z,5.65
2022-11-30T06:33:42.950Z,5.64
2022-11-30T06:36:09.967Z,5.67
2022-11-30T06:38:36.830Z,5.61
2022-11-30T06:41:09.283Z,5.59
2022-11-30T06:43:39.642Z,5.58
2022-11-30T06:46:07.584Z,5.53
2022-11-30T06:48:35.467Z,5.54
2022-11-30T06:51:05.598Z,5.58
2022-11-30T06:53:32.203Z,5.60
2022-11-30T06:55:58.790Z,5.63
2022-11-30T06:58:25.378Z,5.66
2022-11-30T07:00:51.965Z,5.60
2022-11-30T07:03:18.584Z,5.59
2022-11-30T07:05:46.903Z,5.63
2022-11-30T07:08:17.466Z,5.64
2022-11-30T07:10:45.801Z,5.61
2022-11-30T07:13:18.405Z,5.66
2022-11-30T07:15:45.671Z,5.67
2022-11-30T07:18:12.768Z,5.65
2022-11-30T07:20:39.643Z,5.64
2022-11-30T07:23:24.725Z,5.66
2022-11-30T07:26:08.081Z,5.68
2022-11-30T07:28:36.593Z,5.63
2022-11-30T07:31:23.446Z,5.67
2022-11-30T07:33:50.697Z,5.70
2022-11-30T07:36:19.039Z,5.70
2022-11-30T07:38:46.268Z,5.72
2022-11-30T07:41:13.210Z,5.72
2022-11-30T07:43:40.370Z,5.68
2022-11-30T07:46:07.392Z,5.68
2022-11-30T07:48:35.220Z,5.71
2022-11-30T07:51:06.890Z,5.73
2022-11-30T07:53:34.226Z,5.75
2022-11-30T07:56:12.106Z,5.77
2022-11-30T07:58:39.506Z,5.78
2022-11-30T08:01:08.735Z,5.78
2022-11-30T08:03:37.431Z,5.78
2022-11-30T08:06:10.081Z,5.79
2022-11-30T08:08:39.118Z,5.82
2022-11-30T08:11:07.848Z,5.84
2022-11-30T08:13:34.520Z,5.81
2022-11-30T08:16:06.784Z,5.84
2022-11-30T08:18:33.418Z,5.85
2022-11-30T08:21:02.646Z,5.84
2022-11-30T08:23:31.052Z,5.79
2022-11-30T08:26:03.425Z,5.80
2022-11-30T08:28:30.748Z,5.82
2022-11-30T08:31:01.406Z,5.77
2022-11-30T08:33:30.789Z,5.74
2022-11-30T08:36:07.863Z,5.74
2022-11-30T08:38:35.044Z,5.83
2022-11-30T08:41:02.171Z,5.86
2022-11-30T08:43:28.904Z,5.90
2022-11-30T08:45:57.322Z,5.95
2022-11-30T08:48:24.431Z,6.01
2022-11-30T08:50:51.567Z,6.05
2022-11-30T08:53:18.208Z,6.11
2022-11-30T08:55:54.492Z,6.18
2022-11-30T08:58:21.088Z,6.18
2022-11-30T09:00:47.677Z,6.21
2022-11-30T09:03:14.285Z,6.29
2022-11-30T09:05:40.849Z,6.27
2022-11-30T09:08:07.611Z,6.21
2022-11-30T09:10:34.240Z,6.31
2022-11-30T09:13:00.879Z,6.23
2022-11-30T09:15:27.985Z,6.16
2022-11-30T09:17:54.547Z,6.17
2022-11-30T09:20:21.136Z,6.21
2022-11-30T09:22:47.712Z,6.23
2022-11-30T09:25:14.408Z,6.21
2022-11-30T09:27:40.951Z,6.18
2022-11-30T09:30:08.157Z,6.26
2022-11-30T09:32:34.769Z,6.26
2022-11-30T09:35:01.378Z,6.30
2022-11-30T09:37:27.952Z,6.31
2022-11-30T09:39:54.573Z,6.29
2022-11-30T09:42:31.735Z,6.19
2022-11-30T09:45:03.194Z,6.09
2022-11-30T09:47:39.021Z,6.10
2022-11-30T09:50:16.100Z,6.14
2022-11-30T09:52:46.899Z,6.07
2022-11-30T09:55:22.349Z,6.04
2022-11-30T09:57:58.792Z,6.13
2022-11-30T10:00:25.827Z,6.22
2022-11-30T10:02:56.225Z,6.26
2022-11-30T10:05:47.901Z,6.26
2022-11-30T10:08:28.108Z,6.27
2022-11-30T10:11:08.798Z,6.32
2022-11-30T10:13:55.651Z,6.30
2022-11-30T10:16:43.902Z,6.27
2022-11-30T10:19:41.522Z,6.28
2022-11-30T10:22:26.057Z,6.32
2022-11-30T10:25:14.525Z,6.33
2022-11-30T10:27:50.845Z,6.30
2022-11-30T10:30:32.443Z,6.34
2022-11-30T10:33:07.574Z,6.44
2022-11-30T10:35:34.132Z,6.43
2022-11-30T10:38:10.674Z,6.38
2022-11-30T10:40:53.040Z,6.41
2022-11-30T10:43:48.751Z,6.45
2022-11-30T10:46:22.170Z,6.36
2022-11-30T10:48:57.737Z,6.37
2022-11-30T10:51:26.616Z,6.34
2022-11-30T10:53:53.297Z,6.34
2022-11-30T10:56:19.979Z,6.39
2022-11-30T10:58:56.721Z,6.41
2022-11-30T11:01:41.034Z,6.30
2022-11-30T11:04:17.533Z,6.17
2022-11-30T11:06:52.638Z,6.20
2022-11-30T11:09:24.358Z,6.13
2022-11-30T11:11:59.652Z,6.12
2022-11-30T11:14:28.202Z,6.19
2022-11-30T11:17:00.303Z,6.13
2022-11-30T11:19:42.217Z,6.17
2022-11-30T11:22:26.839Z,6.13
2022-11-30T11:25:19.268Z,6.18
2022-11-30T11:27:55.614Z,6.23
2022-11-30T11:30:25.167Z,6.19
2022-11-30T11:33:25.729Z,6.35
2022-11-30T11:36:14.347Z,6.38
2022-11-30T11:38:43.729Z,6.41
2022-11-30T11:41:17.017Z,6.45
2022-11-30T11:43:58.519Z,6.55
2022-11-30T11:46:25.325Z,6.59
2022-11-30T11:49:21.259Z,6.73
2022-11-30T11:51:58.929Z,6.77
2022-11-30T11:54:50.920Z,6.80
2022-11-30T11:57:21.371Z,6.92
2022-11-30T11:59:54.924Z,6.95
2022-11-30T12:02:39.833Z,6.81
2022-11-30T12:05:17.734Z,6.65
2022-11-30T12:07:56.307Z,6.55
2022-11-30T12:13:27.135Z,6.58
2022-11-30T12:16:08.783Z,6.47
2022-11-30T12:19:10.626Z,6.35
2022-11-30T12:21:54.887Z,6.18
2022-11-30T12:25:05.531Z,6.11
2022-11-30T12:27:43.274Z,6.15
2022-11-30T12:30:33.253Z,6.09
2022-11-30T12:33:15.680Z,6.00
2022-11-30T12:35:58.657Z,5.95
2022-11-30T12:38:53.304Z,5.95
2022-11-30T12:41:37.246Z,5.94
2022-11-30T12:44:28.859Z,5.92
2022-11-30T12:47:18.443Z,5.81
2022-11-30T12:50:03.269Z,5.83
2022-11-30T12:52:39.100Z,5.82
2022-11-30T12:55:24.215Z,5.84
2022-11-30T12:58:15.092Z,5.81
2022-11-30T13:01:09.605Z,5.87
2022-11-30T13:03:49.355Z,5.91
2022-11-30T13:06:23.294Z,5.93
2022-11-30T13:09:02.993Z,5.91
2022-11-30T13:11:36.378Z,5.90
2022-11-30T13:14:09.917Z,5.87
2022-11-30T13:16:37.247Z,5.81
2022-11-30T13:19:29.877Z,5.80
2022-11-30T13:22:02.644Z,5.76
2022-11-30T13:24:44.620Z,5.77
2022-11-30T13:27:21.627Z,5.73
2022-11-30T13:30:19.334Z,5.72
2022-11-30T13:33:01.316Z,5.73
2022-11-30T13:35:27.877Z,5.56
2022-11-30T13:38:35.126Z,5.63
2022-11-30T13:40:55.467Z,5.60
2022-11-30T13:43:23.767Z,5.55
2022-11-30T13:46:03.009Z,5.55
2022-11-30T13:48:38.442Z,5.58
2022-11-30T13:51:05.635Z,5.52
2022-11-30T13:53:35.919Z,5.52
2022-11-30T13:56:11.454Z,5.55
2022-11-30T13:59:16.672Z,5.52
2022-11-30T14:01:43.324Z,5.46
2022-11-30T14:04:18.816Z,5.36
2022-11-30T14:06:51.570Z,5.37
2022-11-30T14:09:36.861Z,5.38
2022-11-30T14:12:31.380Z,5.38
2022-11-30T14:14:59.595Z,5.29
2022-11-30T14:17:28.877Z,5.30
2022-11-30T14:20:07.590Z,5.24
2022-11-30T14:22:34.864Z,5.17
2022-11-30T14:25:02.975Z,5.23
2022-11-30T14:27:30.462Z,5.23
2022-11-30T14:30:02.782Z,5.24
2022-11-30T14:32:38.010Z,5.20
2022-11-30T14:35:18.149Z,5.26
2022-11-30T14:37:52.467Z,5.19
2022-11-30T14:40:22.002Z,5.24
2022-11-30T14:42:50.974Z,5.19
2022-11-30T14:45:26.684Z,5.15
2022-11-30T14:48:05.630Z,5.22
2022-11-30T14:50:32.968Z,5.22
2022-11-30T14:53:11.241Z,5.25
2022-11-30T14:55:59.719Z,5.26
2022-11-30T14:58:39.009Z,5.30
2022-11-30T15:01:25.665Z,5.32
2022-11-30T15:03:55.707Z,5.37
2022-11-30T15:06:28.958Z,5.36
2022-11-30T15:08:58.025Z,5.29
2022-11-30T15:11:25.096Z,5.23
2022-11-30T15:13:54.482Z,5.19
2022-11-30T15:16:24.754Z,5.20
2022-11-30T15:18:53.805Z,5.10
2022-11-30T15:21:26.136Z,5.07
2022-11-30T15:23:55.326Z,5.09
2022-11-30T15:26:37.399Z,5.12
2022-11-30T15:29:09.718Z,5.03
2022-11-30T15:31:41.691Z,5.06
2022-11-30T15:34:18.669Z,5.11
2022-11-30T15:36:46.389Z,5.09
2022-11-30T15:39:33.212Z,5.02
2022-11-30T15:42:02.184Z,5.03
2022-11-30T15:44:37.762Z,5.09
2022-11-30T15:47:08.201Z,5.14
2022-11-30T15:49:36.392Z,5.18
2022-11-30T15:52:09.191Z,5.20
2022-11-30T15:54:43.914Z,5.21
2022-11-30T15:57:10.953Z,5.21
2022-11-30T15:59:37.555Z,5.22
2022-11-30T16:02:16.431Z,5.17
2022-11-30T16:04:58.107Z,5.11
2022-11-30T16:07:28.566Z,5.01
2022-11-30T16:10:06.331Z,5.06
2022-11-30T16:12:33.456Z,5.08
2022-11-30T16:15:00.049Z,5.07
2022-11-30T16:17:28.202Z,5.14
2022-11-30T16:19:54.734Z,5.08
2022-11-30T16:22:21.364Z,5.13
2022-11-30T16:24:48.050Z,5.18
2022-11-30T16:27:19.494Z,5.20
2022-11-30T16:29:52.135Z,5.24
2022-11-30T16:32:19.518Z,5.23
2022-11-30T16:34:48.024Z,5.18
2022-11-30T16:37:14.803Z,5.14
2022-11-30T16:39:41.464Z,5.07
2022-11-30T16:42:12.400Z,5.10
2022-11-30T16:44:39.004Z,5.11
2022-11-30T16:47:05.613Z,5.06
2022-11-30T16:49:32.240Z,5.11
2022-11-30T16:51:58.876Z,5.12
2022-11-30T16:54:25.456Z,5.09
2022-11-30T16:56:52.063Z,5.07
2022-11-30T16:59:18.630Z,5.09
2022-11-30T17:01:47.368Z,5.08
2022-11-30T17:04:19.606Z,5.08
2022-11-30T17:06:50.207Z,5.07
2022-11-30T17:09:20.276Z,5.06
2022-11-30T17:11:50.447Z,5.07
2022-11-30T17:14:17.564Z,5.13
2022-11-30T17:16:44.188Z,5.13
2022-11-30T17:19:11.677Z,5.10
2022-11-30T17:21:39.979Z,5.07
2022-11-30T17:24:07.059Z,5.07
2022-11-30T17:26:33.815Z,5.03
2022-11-30T17:29:00.441Z,5.07
2022-11-30T17:31:27.175Z,5.04
2022-11-30T17:33:53.918Z,5.01
2022-11-30T17:36:20.559Z,5.01
2022-11-30T17:38:47.184Z,5.08
2022-11-30T17:41:19.108Z,5.04
2022-11-30T17:43:46.674Z,4.96
2022-11-30T17:46:15.768Z,4.97
2022-11-30T17:48:43.725Z,4.94
2022-11-30T17:51:10.982Z,4.96
2022-11-30T17:53:38.651Z,4.98
2022-11-30T17:56:12.691Z,5.02
2022-11-30T17:58:43.915Z,4.99
2022-11-30T18:01:25.501Z,4.96
2022-11-30T18:03:53.575Z,4.96
2022-11-30T18:06:20.556Z,4.96
2022-11-30T18:08:47.392Z,5.00
2022-11-30T18:11:17.400Z,4.98
2022-11-30T18:13:43.999Z,4.99
2022-11-30T18:16:19.838Z,4.99
2022-11-30T18:18:48.521Z,4.99
2022-11-30T18:21:19.190Z,4.96
2022-11-30T18:23:46.037Z,4.97
2022-11-30T18:26:15.575Z,4.97
2022-11-30T18:28:42.921Z,4.99
2022-11-30T18:31:09.941Z,4.96
2022-11-30T18:33:37.446Z,5.01
2022-11-30T18:36:07.529Z,4.99
2022-11-30T18:38:37.964Z,4.92
2022-11-30T18:41:06.392Z,4.95
2022-11-30T18:43:33.980Z,4.99
2022-11-30T18:46:05.490Z,4.98
2022-11-30T18:48:32.307Z,4.99
2022-11-30T18:50:58.891Z,5.00
2022-11-30T18:53:25.764Z,4.93
2022-11-30T18:55:52.356Z,4.96
2022-11-30T18:58:18.916Z,4.93
2022-11-30T19:00:45.501Z,4.96
2022-11-30T19:03:12.080Z,4.94
2022-11-30T19:05:40.481Z,4.91
2022-11-30T19:08:11.398Z,4.96
2022-11-30T19:10:39.808Z,4.96
2022-11-30T19:13:07.096Z,4.98
2022-11-30T19:15:41.127Z,4.99
2022-11-30T19:18:10.871Z,4.97
2022-11-30T19:20:41.458Z,4.92
2022-11-30T19:23:08.369Z,4.93
2022-11-30T19:25:35.023Z,4.94
2022-11-30T19:28:01.606Z,4.92
2022-11-30T19:30:28.243Z,4.88
2022-11-30T19:32:54.858Z,4.90
2022-11-30T19:35:23.139Z,4.91
2022-11-30T19:37:52.241Z,4.93
2022-11-30T19:40:19.192Z,4.91
2022-11-30T19:42:45.827Z,4.92
2022-11-30T19:45:12.431Z,4.95
2022-11-30T19:47:39.124Z,4.99
2022-11-30T19:50:06.215Z,4.98
2022-11-30T19:52:32.798Z,4.96
2022-11-30T19:54:59.389Z,4.96
2022-11-30T19:57:25.996Z,4.91
2022-11-30T19:59:52.601Z,4.93
2022-11-30T20:02:19.240Z,4.92
2022-11-30T20:04:45.973Z,4.91
2022-11-30T20:07:13.898Z,4.88
2022-11-30T20:09:40.950Z,4.86
2022-11-30T20:12:07.566Z,4.88
2022-11-30T20:14:34.158Z,4.90
2022-11-30T20:17:00.706Z,4.95
2022-11-30T20:19:27.583Z,4.95
2022-11-30T20:21:54.200Z,4.92
2022-11-30T20:24:20.864Z,4.91
2022-11-30T20:26:47.473Z,4.93
2022-11-30T20:29:16.063Z,4.91
2022-11-30T20:31:45.034Z,4.89
2022-11-30T20:34:11.678Z,4.88
2022-11-30T20:36:38.280Z,4.90
2022-11-30T20:39:05.896Z,4.90
2022-11-30T20:41:34.012Z,4.92
2022-11-30T20:44:00.612Z,4.88
2022-11-30T20:46:32.831Z,4.93
2022-11-30T20:49:01.203Z,4.89
2022-11-30T20:51:34.724Z,4.94
2022-11-30T20:54:08.520Z,4.96
2022-11-30T20:56:37.207Z,4.89
2022-11-30T20:59:08.789Z,4.89
2022-11-30T21:01:35.472Z,4.91
2022-11-30T21:04:02.439Z,4.97
2022-11-30T21:06:30.441Z,4.95
2022-11-30T21:08:57.996Z,4.93
2022-11-30T21:11:24.920Z,4.95
2022-11-30T21:13:52.169Z,4.97
2022-11-30T21:16:27.341Z,4.94
2022-11-30T21:18:56.029Z,4.93
2022-11-30T21:21:24.537Z,4.94
2022-11-30T21:23:51.732Z,4.97
2022-11-30T21:26:18.270Z,4.95
2022-11-30T21:28:46.062Z,4.94
2022-11-30T21:31:13.074Z,4.97
2022-11-30T21:33:40.107Z,4.96
2022-11-30T21:36:08.952Z,4.94
2022-11-30T21:38:35.878Z,4.95
2022-11-30T21:41:03.188Z,4.95
2022-11-30T21:43:32.774Z,4.91
2022-11-30T21:46:08.363Z,4.95
2022-11-30T21:48:36.558Z,4.93
2022-11-30T21:51:14.939Z,4.97
2022-11-30T21:53:45.072Z,5.00
2022-11-30T21:56:15.485Z,4.99
2022-11-30T21:58:45.557Z,4.91
2022-11-30T22:01:18.238Z,4.89
2022-11-30T22:03:45.153Z,4.90
2022-11-30T22:06:14.196Z,4.86
2022-11-30T22:08:41.324Z,4.89
2022-11-30T22:11:10.368Z,4.87
2022-11-30T22:13:37.697Z,4.88
2022-11-30T22:16:07.525Z,4.87
2022-11-30T22:18:34.743Z,4.88
2022-11-30T22:21:10.085Z,4.87
2022-11-30T22:23:39.237Z,4.87
2022-11-30T22:26:15.114Z,4.88
2022-11-30T22:28:44.823Z,4.95
2022-11-30T22:31:13.391Z,4.94
2022-11-30T22:33:42.364Z,4.89
2022-11-30T22:36:13.686Z,4.91
2022-11-30T22:38:40.668Z,4.89
2022-11-30T22:41:10.744Z,4.93
2022-11-30T22:43:37.682Z,4.92
2022-11-30T22:46:13.530Z,4.91
2022-11-30T22:48:41.305Z,4.92
2022-11-30T22:51:19.676Z,4.90
2022-11-30T22:53:49.738Z,4.88
2022-11-30T22:56:25.208Z,4.88
2022-11-30T22:58:54.198Z,4.87
2022-11-30T23:01:23.783Z,4.91
2022-11-30T23:03:53.530Z,4.93
2022-11-30T23:06:21.051Z,4.90
2022-11-30T23:08:48.772Z,4.89
2022-11-30T23:11:22.014Z,4.89
2022-11-30T23:13:49.162Z,4.88
2022-11-30T23:16:16.561Z,4.93
2022-11-30T23:18:45.928Z,4.93
2022-11-30T23:21:15.381Z,4.95
2022-11-30T23:23:42.406Z,4.92
2022-11-30T23:26:33.790Z,4.90
2022-11-30T23:29:03.697Z,4.89
2022-11-30T23:31:35.242Z,4.92
2022-11-30T23:34:08.381Z,4.91
2022-11-30T23:36:35.823Z,4.89
2022-11-30T23:39:05.988Z,4.84
2022-11-30T23:41:32.958Z,4.88
2022-11-30T23:43:59.967Z,4.89
2022-11-30T23:46:26.627Z,4.88
2022-11-30T23:48:54.877Z,4.89
2022-11-30T23:51:22.316Z,4.89
2022-11-30T23:53:48.939Z,4.88
2022-11-30T23:56:17.639Z,4.87
2022-11-30T23:58:45.224Z,4.86
